Rudolf Schulte — 9V9152 — position and weather

sailwx.info

Track history (hours):
 
Tides and Currents Weather Stations Pressure Air Temp Water Temp Dewpoint Dewpoint Depression Visibility Wind Speed Wind Dir Waves Ship Positions

Rudolf Schulte

Last reported at 2018-Aug-12 21:36 UTC. Time now 2018-Aug-14 06:58 UTC.
Position N 36°10' E 015°05'.

Length 178 m; draft 9.2 m.

Type: Ship (hazmat cat C). MMSI: 566179000.

Date/timePositionNaut miles runAvg speedWind from/ knotsBaromVisibWave heightAir tempDewpointWater temp
2018-Aug-12 21:36N 36°10' E 015°05'213.9
2018-Aug-12 21:30N 36°10' E 015°03'2913.7
2018-Aug-12 19:21N 36°19' E 014°28'514.0
2018-Aug-12 19:00N 36°21' E 014°23'714.1
2018-Aug-12 18:30N 36°24' E 014°14'714.4
2018-Aug-12 18:00N 36°26' E 014°06'1013.9
2018-Aug-12 17:19N 36°30' E 013°55'413.8
2018-Aug-12 17:00N 36°31' E 013°50'713.9
2018-Aug-12 16:30N 36°34' E 013°42'713.6
2018-Aug-12 16:00N 36°36' E 013°34'60912.9
2018-Aug-10 16:42N 36°58' E 000°54'413.0
2018-Aug-10 16:25N 36°57' E 000°50'3112.9
2018-Aug-10 14:01N 36°46' E 000°14'012.9
2018-Aug-10 13:59N 36°46' E 000°13'612.9
2018-Aug-10 13:30N 36°43' E 000°06'7613.4
2018-Aug-10 07:53N 36°11' W 001°19'18714.3
2018-Aug-09 18:46N 35°60' W 005°10'417.1
2018-Aug-09 18:30N 35°60' W 005°15'917.3
2018-Aug-09 18:01N 35°58' W 005°26'24211.8
2018-Aug-08 21:31N 37°47' W 009°56'1313.3
2018-Aug-08 20:30N 38°01' W 009°60'4713.6
2018-Aug-08 17:03N 38°46' W 010°12'114.2
2018-Aug-08 17:00N 38°47' W 010°12'914.1
2018-Aug-08 16:21N 38°56' W 010°12'514.0
2018-Aug-08 16:00N 39°01' W 010°12'813.9
2018-Aug-08 15:27N 39°09' W 010°12'58813.2
2018-Aug-06 18:48N 48°29' W 006°05'1813.7
2018-Aug-06 17:31N 48°46' W 005°55'013.7
2018-Aug-06 17:30N 48°46' W 005°55'713.7
2018-Aug-06 16:58N 48°52' W 005°50'713.8
2018-Aug-06 16:28N 48°56' W 005°41'714.2
2018-Aug-06 16:00N 48°60' W 005°33'714.3
2018-Aug-06 15:30N 49°03' W 005°23'714.3
2018-Aug-06 15:00N 49°07' W 005°14'714.0
2018-Aug-06 14:31N 49°10' W 005°04'713.7
2018-Aug-06 14:01N 49°14' W 004°56'713.4
2018-Aug-06 13:30N 49°17' W 004°47'713.2
2018-Aug-06 13:00N 49°20' W 004°38'713.0
2018-Aug-06 12:27N 49°24' W 004°28'2312.9
2018-Aug-06 10:38N 49°36' W 003°57'313.2
2018-Aug-06 10:26N 49°37' W 003°54'613.2
2018-Aug-06 10:00N 49°40' W 003°46'713.5
2018-Aug-06 09:30N 49°43' W 003°37'714.0
2018-Aug-06 09:00N 49°47' W 003°28'714.3
2018-Aug-06 08:30N 49°51' W 003°18'714.5
2018-Aug-06 07:59N 49°54' W 003°08'714.5
2018-Aug-06 07:30N 49°58' W 002°58'714.5
2018-Aug-06 07:00N 49°60' W 002°48'714.5
2018-Aug-06 06:30N 50°02' W 002°37'814.3
2018-Aug-06 05:58N 50°04' W 002°25'813.9
2018-Aug-06 05:24N 50°06' W 002°13'613.4
2018-Aug-06 04:58N 50°07' W 002°05'612.9
2018-Aug-06 04:30N 50°09' W 001°56'712.3
2018-Aug-06 03:58N 50°11' W 001°46'1711.6
2018-Aug-06 02:31N 50°15' W 001°20'011.2
2018-Aug-06 02:29N 50°15' W 001°20'1911.5
2018-Aug-06 00:48N 50°22' W 000°52'2513.0
2018-Aug-05 22:53N 50°27' W 000°13'614.0
2018-Aug-05 22:29N 50°29' W 000°04'1414.5
2018-Aug-05 21:30N 50°32' E 000°17'714.2
2018-Aug-05 21:00N 50°34' E 000°28'713.9
2018-Aug-05 20:30N 50°37' E 000°38'713.9
2018-Aug-05 20:00N 50°40' E 000°47'713.6
2018-Aug-05 19:30N 50°44' E 000°56'713.2
2018-Aug-05 19:01N 50°48' E 001°04'612.7
2018-Aug-05 18:30N 50°52' E 001°13'612.0
2018-Aug-05 18:00N 50°56' E 001°20'612.2
2018-Aug-05 17:31N 51°01' E 001°25'612.8
2018-Aug-05 17:01N 51°05' E 001°33'612.6
2018-Aug-05 16:30N 51°10' E 001°40'612.9
2018-Aug-05 16:00N 51°14' E 001°47'713.7
2018-Aug-05 15:31N 51°21' E 001°52'714.6
2018-Aug-05 15:00N 51°27' E 001°57'815.1
2018-Aug-05 14:31N 51°33' E 002°05'1515.1
2018-Aug-05 13:31N 51°44' E 002°22'815.0
2018-Aug-05 13:01N 51°50' E 002°29'714.7
2018-Aug-05 12:31N 51°56' E 002°36'714.0
2018-Aug-05 12:00N 51°60' E 002°45'713.7
2018-Aug-05 11:30N 52°03' E 002°55'713.4
2018-Aug-05 11:00N 52°03' E 003°06'713.4
2018-Aug-05 10:31N 52°03' E 003°17'713.3
2018-Aug-05 10:00N 52°03' E 003°28'713.0
2018-Aug-05 09:28N 52°04' E 003°39'612.5
2018-Aug-05 09:00N 52°03' E 003°49'4 8.9
2018-Aug-05 08:31N 52°02' E 003°55'612.4
2018-Aug-05 08:00N 51°59' E 004°05'510.1
2018-Aug-05 07:30N 51°57' E 004°12'4 8.3
2018-Aug-05 07:00N 51°54' E 004°17'2 3.8
2018-Aug-05 06:30N 51°52' E 004°19'0 0.0
2018-Aug-05 05:58N 51°52' E 004°19'0 0.0
2018-Aug-05 05:28N 51°52' E 004°19'0 0.0
2018-Aug-05 04:58N 51°52' E 004°19'0 0.0
2018-Aug-05 04:28N 51°52' E 004°19'0 0.0
2018-Aug-05 03:58N 51°52' E 004°19'0 0.0
2018-Aug-05 03:29N 51°52' E 004°19'0 0.0
2018-Aug-05 02:58N 51°52' E 004°19'0 0.0
2018-Aug-05 02:29N 51°52' E 004°19'0 0.0
2018-Aug-05 01:58N 51°52' E 004°19'0 0.0
2018-Aug-05 01:22N 51°52' E 004°19'0 0.0
2018-Aug-05 00:58N 51°52' E 004°19'0 0.0
2018-Aug-05 00:28N 51°52' E 004°19'0 0.0
2018-Aug-04 23:59N 51°52' E 004°19'0 0.0
2018-Aug-04 23:29N 51°52' E 004°19'0 0.0
2018-Aug-04 22:52N 51°52' E 004°19'0 0.0
2018-Aug-04 22:28N 51°52' E 004°19'0 0.0
2018-Aug-04 21:59N 51°52' E 004°19'0 0.0
2018-Aug-04 21:28N 51°52' E 004°19'0 0.0
2018-Aug-04 20:59N 51°52' E 004°19'0 0.0
2018-Aug-04 20:28N 51°52' E 004°19'0 0.0
2018-Aug-04 19:58N 51°52' E 004°19'0 0.0
2018-Aug-04 19:28N 51°52' E 004°19'0 0.0
2018-Aug-04 18:58N 51°52' E 004°19'0 0.0
2018-Aug-04 18:28N 51°52' E 004°19'0 0.0
2018-Aug-04 17:58N 51°52' E 004°19'0 0.0
2018-Aug-04 17:19N 51°52' E 004°19'0 0.0
2018-Aug-04 16:55N 51°52' E 004°19'0 0.0
2018-Aug-04 16:28N 51°52' E 004°19'0 0.0
2018-Aug-04 15:58N 51°52' E 004°19'0 0.0
2018-Aug-04 15:28N 51°52' E 004°19'0 0.0
2018-Aug-04 14:58N 51°52' E 004°19'0 0.0
2018-Aug-04 14:28N 51°52' E 004°19'0 0.0
2018-Aug-04 13:58N 51°52' E 004°19'0 0.0
2018-Aug-04 13:28N 51°52' E 004°19'0 0.0
2018-Aug-04 12:58N 51°52' E 004°19'0 0.0
2018-Aug-04 12:28N 51°52' E 004°19'0 0.0
2018-Aug-04 11:52N 51°52' E 004°19'0 0.0
2018-Aug-04 11:28N 51°52' E 004°19'0 0.0
2018-Aug-04 10:58N 51°52' E 004°19'0 0.0
2018-Aug-04 10:28N 51°52' E 004°19'0 0.0
2018-Aug-04 09:58N 51°52' E 004°19'0 0.0
2018-Aug-04 09:28N 51°52' E 004°19'0 0.0
2018-Aug-04 08:52N 51°52' E 004°19'0 0.0
2018-Aug-04 08:28N 51°52' E 004°19'0 0.0
2018-Aug-04 07:52N 51°52' E 004°19'0 0.0
2018-Aug-04 07:28N 51°52' E 004°19'0 0.0
2018-Aug-04 06:58N 51°52' E 004°19'0 0.0
2018-Aug-04 06:28N 51°52' E 004°19'0 0.0
2018-Aug-04 05:58N 51°52' E 004°19'0 0.0
2018-Aug-04 05:28N 51°52' E 004°19'0 0.0
2018-Aug-04 04:58N 51°52' E 004°19'0 0.0
2018-Aug-04 04:28N 51°52' E 004°19'0 0.0
2018-Aug-04 03:58N 51°52' E 004°19'0 0.0
2018-Aug-04 03:28N 51°52' E 004°19'0 0.0
2018-Aug-04 02:58N 51°52' E 004°19'0 0.0
2018-Aug-04 02:28N 51°52' E 004°19'0 0.0
2018-Aug-04 01:58N 51°52' E 004°19'0 0.0
2018-Aug-04 01:28N 51°52' E 004°19'0 0.0
2018-Aug-04 00:58N 51°52' E 004°19'0 0.0
2018-Aug-04 00:22N 51°52' E 004°19'0 0.0
2018-Aug-03 23:58N 51°52' E 004°19'0 0.0
2018-Aug-03 23:28N 51°52' E 004°19'0 0.0
2018-Aug-03 22:58N 51°52' E 004°19'0 0.0
2018-Aug-03 22:28N 51°52' E 004°19'0 0.0
2018-Aug-03 21:55N 51°52' E 004°19'0 0.0
2018-Aug-03 21:28N 51°52' E 004°19'0 0.0
2018-Aug-03 20:58N 51°52' E 004°19'0 0.0
2018-Aug-03 20:28N 51°52' E 004°19'0 0.0
2018-Aug-03 19:52N 51°52' E 004°19'0 0.0
2018-Aug-03 19:22N 51°52' E 004°19'0 0.0
2018-Aug-03 18:58N 51°52' E 004°19'0 0.0
2018-Aug-03 18:28N 51°52' E 004°19'0 0.0
2018-Aug-03 17:52N 51°52' E 004°19'0 0.0
2018-Aug-03 17:28N 51°52' E 004°19'0 0.0
2018-Aug-03 16:58N 51°52' E 004°19'0 0.0
2018-Aug-03 16:22N 51°52' E 004°19'0 0.0
2018-Aug-03 15:58N 51°52' E 004°19'0 0.0
2018-Aug-03 15:28N 51°52' E 004°19'0 0.0
2018-Aug-03 14:58N 51°52' E 004°19'0 0.0
2018-Aug-03 14:28N 51°52' E 004°19'0 0.0
2018-Aug-03 13:58N 51°52' E 004°19'0 0.0
2018-Aug-03 13:28N 51°52' E 004°19'0 0.0
2018-Aug-03 12:58N 51°52' E 004°19'0 0.0
2018-Aug-03 12:28N 51°52' E 004°19'0 0.0
2018-Aug-03 11:58N 51°52' E 004°19'0 0.0
2018-Aug-03 11:28N 51°52' E 004°19'0 0.0
2018-Aug-03 10:58N 51°52' E 004°19'0 0.0
2018-Aug-03 10:28N 51°52' E 004°19'0 0.1
2018-Aug-03 09:59N 51°52' E 004°19'1 2.9
2018-Aug-03 09:30N 51°54' E 004°18'3 7.1
2018-Aug-03 09:00N 51°56' E 004°13'510.0
2018-Aug-03 08:30N 51°59' E 004°07'510.0
2018-Aug-03 08:00N 52°00' E 003°59'5 9.1
2018-Aug-03 07:30N 52°00' E 003°51'2 4.0
2018-Aug-03 07:00N 51°59' E 003°48'4 7.2
2018-Aug-03 06:30N 51°57' E 003°44'0 0.4
2018-Aug-03 05:58N 51°57' E 003°45'0 0.0
2018-Aug-03 05:28N 51°57' E 003°45'0 0.0
2018-Aug-03 04:52N 51°57' E 003°45'0 0.0
2018-Aug-03 04:28N 51°57' E 003°45'0 0.1
2018-Aug-03 03:55N 51°57' E 003°45'0 0.2
2018-Aug-03 03:28N 51°57' E 003°45'0 0.1
2018-Aug-03 02:58N 51°57' E 003°45'0 0.1
2018-Aug-03 02:25N 51°57' E 003°45'0 0.0
2018-Aug-03 01:58N 51°57' E 003°45'0 0.0
2018-Aug-03 01:25N 51°57' E 003°45'0 0.0
2018-Aug-03 00:58N 51°57' E 003°45'0 0.0
2018-Aug-03 00:28N 51°57' E 003°45'0 0.0
2018-Aug-02 23:58N 51°57' E 003°45'0 0.0
2018-Aug-02 23:28N 51°57' E 003°45'0 0.0
2018-Aug-02 22:58N 51°57' E 003°45'0 0.0
2018-Aug-02 22:25N 51°57' E 003°45'0 0.1
2018-Aug-02 21:58N 51°57' E 003°45'  
Track history (hours):
 
Tides and Currents Weather Stations Pressure Air Temp Water Temp Dewpoint Dewpoint Depression Visibility Wind Speed Wind Dir Waves Ship Positions

Rudolf Schulte

Last reported at 2018-Aug-12 21:36 UTC. Time now 2018-Aug-14 06:58 UTC.
Position N 36°10' E 015°05'.

Length 178 m; draft 9.2 m.

Type: Ship (hazmat cat C). MMSI: 566179000.

Date/timePositionNaut miles runAvg speedWind from/ knotsBaromVisibWave heightAir tempDewpointWater temp
2018-Aug-12 21:36N 36°10' E 015°05'213.9
2018-Aug-12 21:30N 36°10' E 015°03'2913.7
2018-Aug-12 19:21N 36°19' E 014°28'514.0
2018-Aug-12 19:00N 36°21' E 014°23'714.1
2018-Aug-12 18:30N 36°24' E 014°14'714.4
2018-Aug-12 18:00N 36°26' E 014°06'1013.9
2018-Aug-12 17:19N 36°30' E 013°55'413.8
2018-Aug-12 17:00N 36°31' E 013°50'713.9
2018-Aug-12 16:30N 36°34' E 013°42'713.6
2018-Aug-12 16:00N 36°36' E 013°34'60912.9
2018-Aug-10 16:42N 36°58' E 000°54'413.0
2018-Aug-10 16:25N 36°57' E 000°50'3112.9
2018-Aug-10 14:01N 36°46' E 000°14'012.9
2018-Aug-10 13:59N 36°46' E 000°13'612.9
2018-Aug-10 13:30N 36°43' E 000°06'7613.4
2018-Aug-10 07:53N 36°11' W 001°19'18714.3
2018-Aug-09 18:46N 35°60' W 005°10'417.1
2018-Aug-09 18:30N 35°60' W 005°15'917.3
2018-Aug-09 18:01N 35°58' W 005°26'24211.8
2018-Aug-08 21:31N 37°47' W 009°56'1313.3
2018-Aug-08 20:30N 38°01' W 009°60'4713.6
2018-Aug-08 17:03N 38°46' W 010°12'114.2
2018-Aug-08 17:00N 38°47' W 010°12'914.1
2018-Aug-08 16:21N 38°56' W 010°12'514.0
2018-Aug-08 16:00N 39°01' W 010°12'813.9
2018-Aug-08 15:27N 39°09' W 010°12'58813.2
2018-Aug-06 18:48N 48°29' W 006°05'1813.7
2018-Aug-06 17:31N 48°46' W 005°55'013.7
2018-Aug-06 17:30N 48°46' W 005°55'713.7
2018-Aug-06 16:58N 48°52' W 005°50'713.8
2018-Aug-06 16:28N 48°56' W 005°41'714.2
2018-Aug-06 16:00N 48°60' W 005°33'714.3
2018-Aug-06 15:30N 49°03' W 005°23'714.3
2018-Aug-06 15:00N 49°07' W 005°14'714.0
2018-Aug-06 14:31N 49°10' W 005°04'713.7
2018-Aug-06 14:01N 49°14' W 004°56'713.4
2018-Aug-06 13:30N 49°17' W 004°47'713.2
2018-Aug-06 13:00N 49°20' W 004°38'713.0
2018-Aug-06 12:27N 49°24' W 004°28'2312.9
2018-Aug-06 10:38N 49°36' W 003°57'313.2
2018-Aug-06 10:26N 49°37' W 003°54'613.2
2018-Aug-06 10:00N 49°40' W 003°46'713.5
2018-Aug-06 09:30N 49°43' W 003°37'714.0
2018-Aug-06 09:00N 49°47' W 003°28'714.3
2018-Aug-06 08:30N 49°51' W 003°18'714.5
2018-Aug-06 07:59N 49°54' W 003°08'714.5
2018-Aug-06 07:30N 49°58' W 002°58'714.5
2018-Aug-06 07:00N 49°60' W 002°48'714.5
2018-Aug-06 06:30N 50°02' W 002°37'814.3
2018-Aug-06 05:58N 50°04' W 002°25'813.9
2018-Aug-06 05:24N 50°06' W 002°13'613.4
2018-Aug-06 04:58N 50°07' W 002°05'612.9
2018-Aug-06 04:30N 50°09' W 001°56'712.3
2018-Aug-06 03:58N 50°11' W 001°46'1711.6
2018-Aug-06 02:31N 50°15' W 001°20'011.2
2018-Aug-06 02:29N 50°15' W 001°20'1911.5
2018-Aug-06 00:48N 50°22' W 000°52'2513.0
2018-Aug-05 22:53N 50°27' W 000°13'614.0
2018-Aug-05 22:29N 50°29' W 000°04'1414.5
2018-Aug-05 21:30N 50°32' E 000°17'714.2
2018-Aug-05 21:00N 50°34' E 000°28'713.9
2018-Aug-05 20:30N 50°37' E 000°38'713.9
2018-Aug-05 20:00N 50°40' E 000°47'713.6
2018-Aug-05 19:30N 50°44' E 000°56'713.2
2018-Aug-05 19:01N 50°48' E 001°04'612.7
2018-Aug-05 18:30N 50°52' E 001°13'612.0
2018-Aug-05 18:00N 50°56' E 001°20'612.2
2018-Aug-05 17:31N 51°01' E 001°25'612.8
2018-Aug-05 17:01N 51°05' E 001°33'612.6
2018-Aug-05 16:30N 51°10' E 001°40'612.9
2018-Aug-05 16:00N 51°14' E 001°47'713.7
2018-Aug-05 15:31N 51°21' E 001°52'714.6
2018-Aug-05 15:00N 51°27' E 001°57'815.1
2018-Aug-05 14:31N 51°33' E 002°05'1515.1
2018-Aug-05 13:31N 51°44' E 002°22'815.0
2018-Aug-05 13:01N 51°50' E 002°29'714.7
2018-Aug-05 12:31N 51°56' E 002°36'714.0
2018-Aug-05 12:00N 51°60' E 002°45'713.7
2018-Aug-05 11:30N 52°03' E 002°55'713.4
2018-Aug-05 11:00N 52°03' E 003°06'713.4
2018-Aug-05 10:31N 52°03' E 003°17'713.3
2018-Aug-05 10:00N 52°03' E 003°28'713.0
2018-Aug-05 09:28N 52°04' E 003°39'612.5
2018-Aug-05 09:00N 52°03' E 003°49'4 8.9
2018-Aug-05 08:31N 52°02' E 003°55'612.4
2018-Aug-05 08:00N 51°59' E 004°05'510.1
2018-Aug-05 07:30N 51°57' E 004°12'4 8.3
2018-Aug-05 07:00N 51°54' E 004°17'2 3.8
2018-Aug-05 06:30N 51°52' E 004°19'0 0.0
2018-Aug-05 05:58N 51°52' E 004°19'0 0.0
2018-Aug-05 05:28N 51°52' E 004°19'0 0.0
2018-Aug-05 04:58N 51°52' E 004°19'0 0.0
2018-Aug-05 04:28N 51°52' E 004°19'0 0.0
2018-Aug-05 03:58N 51°52' E 004°19'0 0.0
2018-Aug-05 03:29N 51°52' E 004°19'0 0.0
2018-Aug-05 02:58N 51°52' E 004°19'0 0.0
2018-Aug-05 02:29N 51°52' E 004°19'0 0.0
2018-Aug-05 01:58N 51°52' E 004°19'0 0.0
2018-Aug-05 01:22N 51°52' E 004°19'0 0.0
2018-Aug-05 00:58N 51°52' E 004°19'0 0.0
2018-Aug-05 00:28N 51°52' E 004°19'0 0.0
2018-Aug-04 23:59N 51°52' E 004°19'0 0.0
2018-Aug-04 23:29N 51°52' E 004°19'0 0.0
2018-Aug-04 22:52N 51°52' E 004°19'0 0.0
2018-Aug-04 22:28N 51°52' E 004°19'0 0.0
2018-Aug-04 21:59N 51°52' E 004°19'0 0.0
2018-Aug-04 21:28N 51°52' E 004°19'0 0.0
2018-Aug-04 20:59N 51°52' E 004°19'0 0.0
2018-Aug-04 20:28N 51°52' E 004°19'0 0.0
2018-Aug-04 19:58N 51°52' E 004°19'0 0.0
2018-Aug-04 19:28N 51°52' E 004°19'0 0.0
2018-Aug-04 18:58N 51°52' E 004°19'0 0.0
2018-Aug-04 18:28N 51°52' E 004°19'0 0.0
2018-Aug-04 17:58N 51°52' E 004°19'0 0.0
2018-Aug-04 17:19N 51°52' E 004°19'0 0.0
2018-Aug-04 16:55N 51°52' E 004°19'0 0.0
2018-Aug-04 16:28N 51°52' E 004°19'0 0.0
2018-Aug-04 15:58N 51°52' E 004°19'0 0.0
2018-Aug-04 15:28N 51°52' E 004°19'0 0.0
2018-Aug-04 14:58N 51°52' E 004°19'0 0.0
2018-Aug-04 14:28N 51°52' E 004°19'0 0.0
2018-Aug-04 13:58N 51°52' E 004°19'0 0.0
2018-Aug-04 13:28N 51°52' E 004°19'0 0.0
2018-Aug-04 12:58N 51°52' E 004°19'0 0.0
2018-Aug-04 12:28N 51°52' E 004°19'0 0.0
2018-Aug-04 11:52N 51°52' E 004°19'0 0.0
2018-Aug-04 11:28N 51°52' E 004°19'0 0.0
2018-Aug-04 10:58N 51°52' E 004°19'0 0.0
2018-Aug-04 10:28N 51°52' E 004°19'0 0.0
2018-Aug-04 09:58N 51°52' E 004°19'0 0.0
2018-Aug-04 09:28N 51°52' E 004°19'0 0.0
2018-Aug-04 08:52N 51°52' E 004°19'0 0.0
2018-Aug-04 08:28N 51°52' E 004°19'0 0.0
2018-Aug-04 07:52N 51°52' E 004°19'0 0.0
2018-Aug-04 07:28N 51°52' E 004°19'0 0.0
2018-Aug-04 06:58N 51°52' E 004°19'0 0.0
2018-Aug-04 06:28N 51°52' E 004°19'0 0.0
2018-Aug-04 05:58N 51°52' E 004°19'0 0.0
2018-Aug-04 05:28N 51°52' E 004°19'0 0.0
2018-Aug-04 04:58N 51°52' E 004°19'0 0.0
2018-Aug-04 04:28N 51°52' E 004°19'0 0.0
2018-Aug-04 03:58N 51°52' E 004°19'0 0.0
2018-Aug-04 03:28N 51°52' E 004°19'0 0.0
2018-Aug-04 02:58N 51°52' E 004°19'0 0.0
2018-Aug-04 02:28N 51°52' E 004°19'0 0.0
2018-Aug-04 01:58N 51°52' E 004°19'0 0.0
2018-Aug-04 01:28N 51°52' E 004°19'0 0.0
2018-Aug-04 00:58N 51°52' E 004°19'0 0.0
2018-Aug-04 00:22N 51°52' E 004°19'0 0.0
2018-Aug-03 23:58N 51°52' E 004°19'0 0.0
2018-Aug-03 23:28N 51°52' E 004°19'0 0.0
2018-Aug-03 22:58N 51°52' E 004°19'0 0.0
2018-Aug-03 22:28N 51°52' E 004°19'0 0.0
2018-Aug-03 21:55N 51°52' E 004°19'0 0.0
2018-Aug-03 21:28N 51°52' E 004°19'0 0.0
2018-Aug-03 20:58N 51°52' E 004°19'0 0.0
2018-Aug-03 20:28N 51°52' E 004°19'0 0.0
2018-Aug-03 19:52N 51°52' E 004°19'0 0.0
2018-Aug-03 19:22N 51°52' E 004°19'0 0.0
2018-Aug-03 18:58N 51°52' E 004°19'0 0.0
2018-Aug-03 18:28N 51°52' E 004°19'0 0.0
2018-Aug-03 17:52N 51°52' E 004°19'0 0.0
2018-Aug-03 17:28N 51°52' E 004°19'0 0.0
2018-Aug-03 16:58N 51°52' E 004°19'0 0.0
2018-Aug-03 16:22N 51°52' E 004°19'0 0.0
2018-Aug-03 15:58N 51°52' E 004°19'0 0.0
2018-Aug-03 15:28N 51°52' E 004°19'0 0.0
2018-Aug-03 14:58N 51°52' E 004°19'0 0.0
2018-Aug-03 14:28N 51°52' E 004°19'0 0.0
2018-Aug-03 13:58N 51°52' E 004°19'0 0.0
2018-Aug-03 13:28N 51°52' E 004°19'0 0.0
2018-Aug-03 12:58N 51°52' E 004°19'0 0.0
2018-Aug-03 12:28N 51°52' E 004°19'0 0.0
2018-Aug-03 11:58N 51°52' E 004°19'0 0.0
2018-Aug-03 11:28N 51°52' E 004°19'0 0.0
2018-Aug-03 10:58N 51°52' E 004°19'0 0.0
2018-Aug-03 10:28N 51°52' E 004°19'0 0.1
2018-Aug-03 09:59N 51°52' E 004°19'1 2.9
2018-Aug-03 09:30N 51°54' E 004°18'3 7.1
2018-Aug-03 09:00N 51°56' E 004°13'510.0
2018-Aug-03 08:30N 51°59' E 004°07'510.0
2018-Aug-03 08:00N 52°00' E 003°59'5 9.1
2018-Aug-03 07:30N 52°00' E 003°51'2 4.0
2018-Aug-03 07:00N 51°59' E 003°48'4 7.2
2018-Aug-03 06:30N 51°57' E 003°44'0 0.4
2018-Aug-03 05:58N 51°57' E 003°45'0 0.0
2018-Aug-03 05:28N 51°57' E 003°45'0 0.0
2018-Aug-03 04:52N 51°57' E 003°45'0 0.0
2018-Aug-03 04:28N 51°57' E 003°45'0 0.1
2018-Aug-03 03:55N 51°57' E 003°45'0 0.2
2018-Aug-03 03:28N 51°57' E 003°45'0 0.1
2018-Aug-03 02:58N 51°57' E 003°45'0 0.1
2018-Aug-03 02:25N 51°57' E 003°45'0 0.0
2018-Aug-03 01:58N 51°57' E 003°45'0 0.0
2018-Aug-03 01:25N 51°57' E 003°45'0 0.0
2018-Aug-03 00:58N 51°57' E 003°45'0 0.0
2018-Aug-03 00:28N 51°57' E 003°45'0 0.0
2018-Aug-02 23:58N 51°57' E 003°45'0 0.0
2018-Aug-02 23:28N 51°57' E 003°45'0 0.0
2018-Aug-02 22:58N 51°57' E 003°45'0 0.0
2018-Aug-02 22:25N 51°57' E 003°45'0 0.1
2018-Aug-02 21:58N 51°57' E 003°45'  

Dump ship's entire track history